Time;durP1;ratioP1;P1;durP2;ratioP2;P2;SDS_P1;SDS_P2;PMS_P1;PMS_P2;Temp;Humidity;BMP_temperature;BMP_pressure;BME280_temperature;BME280_humidity;BME280_pressure;Samples;Min_cycle;Max_cycle;Signal;HPM_P1;HPM_P2
2022/09/23 00:02:06;;;;;;;7.72;3.30;;;;;;;12.73;100.00;100322.59;5050469;28;20211;-74
2022/09/23 00:04:33;;;;;;;3.97;3.20;;;;;;;12.54;100.00;100315.47;5052007;28;20735;-74
2022/09/23 00:07:00;;;;;;;3.50;3.20;;;;;;;12.54;100.00;100325.84;5054093;28;20198;-75
2022/09/23 00:09:26;;;;;;;4.80;2.80;;;;;;;12.55;100.00;100322.41;5057609;28;20219;-74
2022/09/23 00:11:54;;;;;;;5.72;2.90;;;;;;;12.61;100.00;100333.75;5049879;28;20958;-74
2022/09/23 00:14:22;;;;;;;3.00;2.80;;;;;;;12.66;100.00;100331.22;5054718;28;20290;-75
2022/09/23 00:16:49;;;;;;;4.60;3.30;;;;;;;12.51;100.00;100326.72;5051106;28;20833;-74
2022/09/23 00:19:15;;;;;;;3.08;2.88;;;;;;;12.40;100.00;100323.13;5051904;28;20660;-74
2022/09/23 00:21:42;;;;;;;3.47;3.28;;;;;;;12.34;100.00;100326.50;5021736;28;20265;-74
2022/09/23 00:24:09;;;;;;;3.70;3.40;;;;;;;12.33;100.00;100316.09;5030065;28;20196;-74
2022/09/23 00:26:36;;;;;;;3.70;3.40;;;;;;;12.34;100.00;100326.50;5043906;28;20272;-74
2022/09/23 00:29:02;;;;;;;3.50;3.20;;;;;;;12.26;100.00;100320.34;5057667;28;20679;-74
2022/09/23 00:31:31;;;;;;;3.30;3.00;;;;;;;12.24;100.00;100313.38;5014235;28;20277;-74
2022/09/23 00:33:59;;;;;;;3.92;3.10;;;;;;;12.22;100.00;100317.69;5050808;28;20204;-74
2022/09/23 00:36:27;;;;;;;3.85;3.17;;;;;;;12.27;100.00;100319.47;5055569;28;20195;-74
2022/09/23 00:38:55;;;;;;;6.32;3.08;;;;;;;12.30;100.00;100311.75;5052398;28;21537;-74
2022/09/23 00:41:22;;;;;;;4.55;3.60;;;;;;;12.31;100.00;100317.78;5052882;28;20203;-74
2022/09/23 00:43:51;;;;;;;3.65;3.45;;;;;;;12.25;100.00;100302.13;5049923;28;20199;-74
2022/09/23 00:46:22;;;;;;;3.83;3.30;;;;;;;12.34;100.00;100317.84;5050541;28;20207;-74
2022/09/23 00:48:55;;;;;;;3.70;3.33;;;;;;;12.31;100.00;100312.59;5053978;28;20190;-74
2022/09/23 00:51:24;;;;;;;4.03;3.72;;;;;;;12.25;100.00;100316.00;5040593;28;20892;-74
2022/09/23 00:53:52;;;;;;;3.75;3.42;;;;;;;12.26;100.00;100309.09;5052221;28;20621;-74
2022/09/23 00:56:23;;;;;;;3.40;3.15;;;;;;;12.26;100.00;100315.16;5051314;28;20269;-74
2022/09/23 00:58:51;;;;;;;3.58;3.28;;;;;;;12.22;100.00;100292.56;5052903;28;20698;-74
2022/09/23 01:01:19;;;;;;;2.92;2.80;;;;;;;12.26;100.00;100304.75;5052194;28;20207;-74
2022/09/23 01:03:47;;;;;;;3.60;3.20;;;;;;;12.08;100.00;100293.25;5053816;28;20203;-74
2022/09/23 01:06:15;;;;;;;5.90;3.78;;;;;;;12.16;100.00;100300.31;5053514;28;20599;-74
2022/09/23 01:08:45;;;;;;;4.05;3.35;;;;;;;12.08;100.00;100301.94;5054847;28;20650;-74
2022/09/23 01:11:24;;;;;;;3.40;3.17;;;;;;;12.10;100.00;100308.00;5046184;28;20215;-74
2022/09/23 01:14:00;;;;;;;3.45;2.90;;;;;;;12.11;100.00;100303.69;5050403;28;20277;-74
2022/09/23 01:16:34;;;;;;;3.08;2.88;;;;;;;12.14;100.00;100309.78;5048163;28;20596;-74
2022/09/23 01:19:11;;;;;;;4.05;3.25;;;;;;;11.78;100.00;100253.03;5055880;28;20206;-74
2022/09/23 01:21:52;;;;;;;3.47;3.17;;;;;;;12.09;100.00;100314.09;5052955;28;20206;-74
2022/09/23 01:24:37;;;;;;;3.83;2.97;;;;;;;12.06;100.00;100306.22;5041124;28;20195;-74
2022/09/23 01:27:36;;;;;;;2.88;2.75;;;;;;;12.05;100.00;100309.69;5052726;28;20210;-74
2022/09/23 01:30:09;;;;;;;3.38;3.10;;;;;;;11.85;100.00;100299.03;5054930;28;20195;-74
2022/09/23 01:32:49;;;;;;;5.35;3.38;;;;;;;11.90;100.00;100309.50;5058444;28;20276;-74
2022/09/23 01:35:23;;;;;;;3.70;3.22;;;;;;;11.93;100.00;100305.22;5060856;28;20198;-74
2022/09/23 01:37:56;;;;;;;3.75;3.45;;;;;;;11.95;100.00;100302.59;5056363;28;20219;-75
2022/09/23 01:40:30;;;;;;;3.75;3.20;;;;;;;11.37;100.00;100213.53;5060281;28;20207;-75
2022/09/23 01:43:05;;;;;;;4.03;3.47;;;;;;;11.93;100.00;100299.13;5058255;28;20620;-75
2022/09/23 01:45:36;;;;;;;3.47;3.10;;;;;;;11.79;100.00;100308.47;5059890;28;20228;-75
2022/09/23 01:48:12;;;;;;;4.18;3.42;;;;;;;11.85;100.00;100305.94;5056423;28;20662;-74
2022/09/23 01:50:56;;;;;;;3.30;3.00;;;;;;;11.87;100.00;100299.06;5058225;28;20195;-74
2022/09/23 01:53:34;;;;;;;3.90;3.60;;;;;;;11.76;100.00;100285.06;5051495;28;20195;-75
2022/09/23 01:56:07;;;;;;;3.22;2.97;;;;;;;11.63;100.00;100283.97;5052248;28;20207;-74
2022/09/23 01:58:41;;;;;;;3.58;3.28;;;;;;;11.77;100.00;100312.78;5057838;28;20209;-74
2022/09/23 02:01:13;;;;;;;5.13;2.88;;;;;;;11.61;100.00;100298.66;5057178;28;20192;-74
2022/09/23 02:03:45;;;;;;;4.18;3.20;;;;;;;11.71;100.00;100317.88;5062122;28;20211;-75
2022/09/23 02:06:16;;;;;;;4.63;3.65;;;;;;;11.72;100.00;100314.44;5053324;28;20752;-74
2022/09/23 02:08:47;;;;;;;3.30;3.08;;;;;;;11.83;100.00;100325.84;5054380;28;20224;-74
2022/09/23 02:11:15;;;;;;;4.60;2.92;;;;;;;11.84;100.00;100327.59;5057096;28;20219;-74
2022/09/23 02:13:48;;;;;;;3.45;3.15;;;;;;;11.84;100.00;100328.44;5046674;28;21097;-75
2022/09/23 02:16:24;;;;;;;7.53;3.40;;;;;;;11.81;100.00;100330.13;5058911;28;20199;-74
2022/09/23 02:18:57;;;;;;;4.18;3.00;;;;;;;11.81;100.00;100330.13;5054833;28;20209;-74
2022/09/23 02:21:29;;;;;;;3.85;3.53;;;;;;;11.75;100.00;100336.13;5000906;28;20281;-74
2022/09/23 02:24:04;;;;;;;4.65;3.50;;;;;;;11.73;100.00;100334.38;5057781;28;20290;-74
2022/09/23 02:26:35;;;;;;;3.55;3.20;;;;;;;11.71;100.00;100341.25;5055146;28;20203;-75
2022/09/23 02:29:09;;;;;;;3.97;3.63;;;;;;;11.53;100.00;100315.84;5051971;28;20215;-74
2022/09/23 02:31:40;;;;;;;4.53;3.83;;;;;;;11.65;100.00;100338.53;5057511;28;21365;-74
2022/09/23 02:34:19;;;;;;;4.47;3.78;;;;;;;11.60;100.00;100343.66;5055616;28;20196;-74
2022/09/23 02:36:53;;;;;;;3.95;3.65;;;;;;;11.46;100.00;100332.19;5056684;28;20655;-74
2022/09/23 02:39:23;;;;;;;3.88;3.58;;;;;;;11.60;100.00;100347.97;5048955;28;20196;-75
2022/09/23 02:41:56;;;;;;;4.20;3.83;;;;;;;11.57;100.00;100347.94;5050221;28;20695;-74
2022/09/23 02:44:24;;;;;;;9.43;3.88;;;;;;;11.40;100.00;100333.00;5052986;28;20195;-74
2022/09/23 02:46:52;;;;;;;4.00;3.70;;;;;;;11.12;100.00;100293.59;5050654;28;20204;-74
2022/09/23 02:49:23;;;;;;;3.80;3.50;;;;;;;11.44;100.00;100349.47;5056393;28;20195;-74
2022/09/23 02:51:51;;;;;;;4.22;3.83;;;;;;;11.47;100.00;100348.66;5064547;28;20223;-74
2022/09/23 02:54:21;;;;;;;3.38;2.88;;;;;;;11.45;100.00;100349.50;5053023;28;20261;-74
2022/09/23 02:56:48;;;;;;;3.53;3.22;;;;;;;11.19;100.00;100316.19;5052941;28;20704;-74
2022/09/23 02:59:18;;;;;;;3.25;3.05;;;;;;;11.47;100.00;100351.25;5052944;28;20739;-74
2022/09/23 03:01:57;;;;;;;3.38;3.08;;;;;;;11.52;100.00;100360.00;5052656;28;20200;-74
2022/09/23 03:04:35;;;;;;;3.17;2.97;;;;;;;11.56;100.00;100354.00;5051612;28;20199;-74
2022/09/23 03:07:06;;;;;;;3.13;2.85;;;;;;;11.66;100.00;100366.28;5056920;28;20221;-74
2022/09/23 03:09:39;;;;;;;3.25;3.05;;;;;;;11.69;100.00;100366.31;5052964;28;20227;-74
2022/09/23 03:12:15;;;;;;;2.88;2.70;;;;;;;11.57;100.00;100337.53;5052223;28;20676;-74
2022/09/23 03:14:51;;;;;;;3.42;3.10;;;;;;;11.51;100.00;100355.63;5055378;28;20654;-74
2022/09/23 03:17:24;;;;;;;3.30;3.10;;;;;;;11.41;100.00;100355.47;5054875;28;21298;-74
2022/09/23 03:19:58;;;;;;;3.58;3.28;;;;;;;11.49;100.00;100357.31;5057190;28;20191;-74
2022/09/23 03:22:29;;;;;;;3.88;3.38;;;;;;;11.41;100.00;100355.47;5053528;28;20198;-74
2022/09/23 03:25:03;;;;;;;3.67;3.38;;;;;;;11.38;100.00;100355.44;5055789;28;20204;-75
2022/09/23 03:27:32;;;;;;;3.53;3.25;;;;;;;11.29;100.00;100324.16;5054055;28;20271;-71
2022/09/23 03:30:00;;;;;;;3.72;3.42;;;;;;;11.42;100.00;100352.03;5055705;28;21164;-74
2022/09/23 03:32:29;;;;;;;3.90;3.40;;;;;;;11.41;100.00;100355.47;5056761;28;20219;-74
2022/09/23 03:35:00;;;;;;;4.25;3.47;;;;;;;11.39;100.00;100356.31;5051342;28;20211;-74
2022/09/23 03:37:32;;;;;;;4.18;3.10;;;;;;;11.34;100.00;100364.00;5058572;28;20203;-74
2022/09/23 03:40:04;;;;;;;3.33;3.08;;;;;;;11.48;100.00;100371.19;5045110;28;20207;-74
2022/09/23 03:42:33;;;;;;;3.55;3.25;;;;;;;11.56;100.00;100379.97;5050625;28;20686;-74
2022/09/23 03:45:01;;;;;;;3.63;3.20;;;;;;;11.36;100.00;100357.16;5059901;28;20244;-73
2022/09/23 03:47:29;;;;;;;4.28;3.95;;;;;;;11.37;100.00;100374.47;5054414;28;20223;-74
2022/09/23 03:49:58;;;;;;;3.97;3.67;;;;;;;11.23;100.00;100369.91;5059437;28;20553;-74
2022/09/23 03:52:25;;;;;;;8.75;4.40;;;;;;;11.14;100.00;100370.59;5056913;28;20227;-74
2022/09/23 03:54:52;;;;;;;3.58;3.38;;;;;;;10.85;100.00;100351.94;5057686;28;20268;-73
2022/09/23 03:57:21;;;;;;;4.75;4.30;;;;;;;10.79;100.00;100366.50;5062863;28;20249;-73
2022/09/23 03:59:49;;;;;;;6.90;4.47;;;;;;;10.72;100.00;100362.94;5054315;28;20297;-74
2022/09/23 04:02:16;;;;;;;4.50;4.10;;;;;;;10.63;100.00;100361.91;5059103;28;20199;-74
2022/09/23 04:04:43;;;;;;;8.73;5.00;;;;;;;10.47;100.00;100359.84;5048808;28;20192;-74
2022/09/23 04:07:13;;;;;;;5.35;4.68;;;;;;;10.53;100.00;100367.72;5056627;28;20192;-73
2022/09/23 04:09:40;;;;;;;6.65;4.50;;;;;;;10.37;100.00;100357.06;5048647;28;21206;-74
2022/09/23 04:12:07;;;;;;;5.80;4.47;;;;;;;10.38;100.00;100363.97;5057583;28;20226;-74
2022/09/23 04:14:34;;;;;;;4.45;4.10;;;;;;;10.35;100.00;100343.19;5056014;28;20260;-75
2022/09/23 04:17:01;;;;;;;12.82;4.65;;;;;;;10.83;100.00;100357.94;5049348;28;20255;-74
2022/09/23 04:19:28;;;;;;;5.15;4.72;;;;;;;10.76;100.00;100371.66;5055024;28;20199;-74
2022/09/23 04:21:55;;;;;;;4.68;4.28;;;;;;;10.87;100.00;100367.53;5052671;28;20205;-75
2022/09/23 04:24:23;;;;;;;10.65;4.82;;;;;;;11.24;100.00;100366.44;5050177;28;20249;-76
2022/09/23 04:26:52;;;;;;;4.93;4.45;;;;;;;11.25;100.00;100374.25;5027557;28;20730;-76
2022/09/23 04:29:19;;;;;;;5.20;4.70;;;;;;;11.32;100.00;100373.53;5048269;28;20287;-75
2022/09/23 04:31:46;;;;;;;6.40;4.50;;;;;;;11.28;100.00;100374.31;5058634;28;20219;-75
2022/09/23 04:34:14;;;;;;;7.22;4.53;;;;;;;11.45;100.00;100388.44;5054772;28;20198;-75
2022/09/23 04:36:41;;;;;;;4.57;4.18;;;;;;;11.50;100.00;100388.53;5058984;28;20245;-75
2022/09/23 04:39:08;;;;;;;6.43;5.13;;;;;;;11.97;100.00;100365.88;5057679;28;20207;-74
2022/09/23 04:41:36;;;;;;;8.50;3.97;;;;;;;12.40;100.00;100376.00;5054147;28;20202;-75
2022/09/23 04:44:04;;;;;;;4.45;3.20;;;;;;;12.70;100.00;100387.63;5057636;28;20210;-75
2022/09/23 04:46:31;;;;;;;4.72;3.90;;;;;;;12.90;100.00;100393.91;5051303;28;20589;-75
2022/09/23 04:48:57;;;;;;;4.63;3.95;;;;;;;13.20;100.00;100394.22;5052692;28;20279;-76
2022/09/23 04:51:27;;;;;;;4.22;3.90;;;;;;;13.40;100.00;100390.09;5018749;28;20229;-73
2022/09/23 04:53:55;;;;;;;3.22;3.00;;;;;;;13.20;100.00;100378.59;5054127;28;20204;-77
2022/09/23 04:56:24;;;;;;;3.30;2.85;;;;;;;13.07;100.00;100397.53;5054833;28;20194;-75
2022/09/23 04:58:53;;;;;;;3.08;2.80;;;;;;;12.81;100.00;100391.19;5051703;28;20203;-75
2022/09/23 05:01:23;;;;;;;3.47;3.17;;;;;;;13.00;100.00;100387.94;5060122;28;20206;-75
2022/09/23 05:03:51;;;;;;;3.13;2.70;;;;;;;12.87;100.00;100393.88;5059398;28;20199;-75
2022/09/23 05:06:17;;;;;;;11.95;4.55;;;;;;;12.82;100.00;100398.16;5069453;28;20240;-75
2022/09/23 05:08:49;;;;;;;4.68;3.00;;;;;;;12.89;100.00;100397.34;5070495;28;20223;-73
2022/09/23 05:11:17;;;;;;;3.25;3.05;;;;;;;12.81;100.00;100405.06;5052113;28;20199;-75
2022/09/23 05:13:44;;;;;;;10.05;3.55;;;;;;;12.73;100.00;100400.66;5049103;28;20239;-75
2022/09/23 05:16:12;;;;;;;2.95;2.75;;;;;;;13.03;100.00;100405.31;5048216;28;20196;-76
2022/09/23 05:18:41;;;;;;;3.05;2.85;;;;;;;13.05;100.00;100416.63;5048116;28;20207;-76
2022/09/23 05:21:08;;;;;;;3.03;2.78;;;;;;;13.03;100.00;100419.19;5048340;28;20229;-76
2022/09/23 05:23:35;;;;;;;9.43;3.65;;;;;;;12.90;100.00;100414.72;5051823;28;20207;-76
2022/09/23 05:26:04;;;;;;;8.10;3.53;;;;;;;12.84;100.00;100397.28;5047907;28;20207;-76
2022/09/23 05:28:32;;;;;;;8.30;3.40;;;;;;;12.68;100.00;100407.53;5048773;28;20277;-74
2022/09/23 05:31:03;;;;;;;3.85;3.55;;;;;;;12.82;100.00;100417.25;5039004;28;20282;-74
2022/09/23 05:33:31;;;;;;;3.15;2.95;;;;;;;12.82;100.00;100422.44;5050049;28;20238;-73
2022/09/23 05:35:58;;;;;;;3.30;3.00;;;;;;;12.98;100.00;100425.22;5042436;28;20712;-73
2022/09/23 05:38:25;;;;;;;28.30;14.93;;;;;;;13.12;100.00;100403.72;5040435;28;20726;-73
2022/09/23 05:40:56;;;;;;;5.68;4.03;;;;;;;13.30;100.00;100432.53;5055379;28;20601;-74
2022/09/23 05:43:23;;;;;;;2.53;2.33;;;;;;;12.78;100.00;100388.56;5037203;28;20290;-74
2022/09/23 05:45:50;;;;;;;2.35;2.15;;;;;;;12.86;100.00;100415.53;5033805;28;20221;-73
2022/09/23 05:48:17;;;;;;;8.32;3.00;;;;;;;12.71;100.00;100415.38;5036621;28;20199;-74
2022/09/23 05:50:50;;;;;;;3.00;2.72;;;;;;;12.92;100.00;100419.09;5043319;28;20204;-73
2022/09/23 05:53:17;;;;;;;2.92;2.70;;;;;;;12.94;100.00;100411.31;5041328;28;20219;-73
2022/09/23 05:55:44;;;;;;;5.75;2.85;;;;;;;12.90;100.00;100425.13;5048351;28;20201;-72
2022/09/23 05:58:11;;;;;;;3.63;3.00;;;;;;;12.66;100.00;100427.47;5048652;28;20231;-73
2022/09/23 06:00:39;;;;;;;3.22;3.03;;;;;;;12.81;100.00;100435.44;5043293;28;20204;-76
2022/09/23 06:03:06;;;;;;;2.90;2.70;;;;;;;12.86;100.00;100420.75;5045415;28;20204;-73
2022/09/23 06:05:33;;;;;;;4.75;2.92;;;;;;;13.10;100.00;100433.19;5044016;28;20235;-73
2022/09/23 06:08:01;;;;;;;3.38;3.08;;;;;;;13.26;100.00;100435.09;5043429;28;20204;-73
2022/09/23 06:10:28;;;;;;;2.58;2.38;;;;;;;13.31;100.00;100423.84;5042746;28;20193;-74
2022/09/23 06:12:55;;;;;;;3.00;2.65;;;;;;;13.57;100.00;100439.72;5016964;28;20603;-73
2022/09/23 06:15:22;;;;;;;2.95;2.75;;;;;;;13.67;100.00;100443.25;5030131;28;20203;-71
2022/09/23 06:17:49;;;;;;;3.33;2.85;;;;;;;13.49;100.00;100453.53;5033590;28;20204;-71
2022/09/23 06:20:16;;;;;;;4.30;2.80;;;;;;;13.60;100.00;100452.75;5044786;28;20291;-74
2022/09/23 06:22:43;;;;;;;3.22;2.95;;;;;;;13.20;100.00;100456.72;5051604;28;20683;-72
2022/09/23 06:25:11;;;;;;;2.33;2.22;;;;;;;13.24;100.00;100440.28;5040464;28;20203;-74
2022/09/23 06:27:38;;;;;;;2.85;2.65;;;;;;;13.37;100.00;100449.09;5011226;28;20295;-71
2022/09/23 06:30:06;;;;;;;2.85;2.65;;;;;;;13.38;100.00;100456.91;5044416;28;20730;-75
2022/09/23 06:32:33;;;;;;;3.53;2.78;;;;;;;13.50;100.00;100461.38;5042473;28;20227;-72
2022/09/23 06:35:00;;;;;;;3.83;2.65;;;;;;;13.48;100.00;100446.59;5036389;28;20220;-71
2022/09/23 06:37:27;;;;;;;16.58;5.75;;;;;;;13.87;100.00;100436.50;5033156;28;20582;-71
2022/09/23 06:39:54;;;;;;;3.20;2.90;;;;;;;13.82;100.00;100449.47;5033483;28;20211;-73
2022/09/23 06:42:22;;;;;;;3.72;3.20;;;;;;;13.67;100.00;100453.69;5032995;28;20606;-72
2022/09/23 06:44:49;;;;;;;2.97;2.63;;;;;;;13.67;100.00;100438.06;5039701;28;20197;-74
2022/09/23 06:47:15;;;;;;;3.25;3.03;;;;;;;13.98;100.00;100460.03;5044610;28;20196;-71
2022/09/23 06:49:42;;;;;;;4.15;3.10;;;;;;;14.01;100.00;100458.31;5033009;28;20588;-71
2022/09/23 06:52:09;;;;;;;7.88;4.88;;;;;;;14.19;100.00;100471.50;5040442;28;20210;-72
2022/09/23 06:54:36;;;;;;;6.20;3.15;;;;;;;14.22;100.00;100465.41;5044021;28;20213;-73
2022/09/23 06:57:03;;;;;;;2.45;2.35;;;;;;;14.35;100.00;100462.03;5047172;28;20206;-73
2022/09/23 06:59:32;;;;;;;4.55;3.70;;;;;;;14.10;100.00;100416.66;5047879;28;20200;-72
2022/09/23 07:01:58;;;;;;;3.65;3.35;;;;;;;14.42;100.00;100468.16;5018126;28;20635;-72
2022/09/23 07:04:25;;;;;;;4.47;3.40;;;;;;;14.53;100.00;100471.69;5044598;28;20672;-71
2022/09/23 07:06:53;;;;;;;4.85;3.40;;;;;;;14.73;100.00;100475.28;5046052;28;20265;-72
2022/09/23 07:09:20;;;;;;;2.67;2.47;;;;;;;14.71;99.29;100469.19;5050201;28;20235;-72
2022/09/23 07:11:47;;;;;;;6.80;3.40;;;;;;;14.91;96.27;100488.41;5045737;28;20204;-71
2022/09/23 07:14:14;;;;;;;5.82;3.03;;;;;;;15.13;97.20;100487.63;5024109;28;20227;-71
2022/09/23 07:16:42;;;;;;;8.18;4.28;;;;;;;15.43;97.84;100491.16;5045598;28;20664;-73
2022/09/23 07:19:10;;;;;;;4.38;2.72;;;;;;;15.66;93.98;100492.13;5047464;28;20200;-70
2022/09/23 07:21:37;;;;;;;3.00;2.80;;;;;;;15.68;90.20;100495.59;5039336;28;20250;-71
2022/09/23 07:24:04;;;;;;;3.20;2.80;;;;;;;16.21;87.39;100506.94;5047292;28;20208;-72
2022/09/23 07:26:32;;;;;;;3.70;2.88;;;;;;;16.30;85.00;100506.06;5049375;28;20191;-71
2022/09/23 07:29:03;;;;;;;3.95;2.92;;;;;;;16.31;84.75;100506.03;5047537;28;20231;-72
2022/09/23 07:31:30;;;;;;;2.30;2.20;;;;;;;16.26;84.79;100514.78;5050243;28;20192;-72
2022/09/23 07:34:00;;;;;;;2.22;2.13;;;;;;;16.20;85.12;100515.66;5042577;28;20674;-72
2022/09/23 07:36:30;;;;;;;3.03;2.83;;;;;;;16.38;84.64;100509.50;5040714;28;20204;-72
2022/09/23 07:39:01;;;;;;;5.65;2.90;;;;;;;16.53;86.60;100508.63;5047137;28;20278;-72
2022/09/23 07:41:29;;;;;;;3.15;2.53;;;;;;;16.49;81.97;100491.16;5037495;28;20204;-69
2022/09/23 07:43:57;;;;;;;2.78;2.58;;;;;;;16.77;82.66;100487.63;5032177;28;20212;-73
2022/09/23 07:46:25;;;;;;;3.05;2.80;;;;;;;16.67;80.76;100464.97;5038963;28;20196;-76
2022/09/23 07:48:52;;;;;;;3.70;2.58;;;;;;;16.95;79.77;100505.88;5032148;28;20765;-73
2022/09/23 07:51:22;;;;;;;3.33;2.40;;;;;;;16.97;78.86;100485.81;5021108;28;20283;-74
2022/09/23 07:53:50;;;;;;;2.80;2.60;;;;;;;16.80;80.08;100478.00;5038610;28;20223;-73
2022/09/23 07:56:18;;;;;;;4.72;2.65;;;;;;;17.20;79.31;100493.53;5044349;28;20695;-73
2022/09/23 07:58:45;;;;;;;3.10;2.80;;;;;;;17.35;77.72;100483.84;5034068;28;20668;-73
2022/09/23 08:01:12;;;;;;;5.43;2.95;;;;;;;17.44;77.05;100476.81;5031682;28;20221;-73
2022/09/23 08:03:39;;;;;;;5.97;2.80;;;;;;;17.97;74.02;100487.81;4996801;28;20211;-74
2022/09/23 08:06:07;;;;;;;3.05;2.85;;;;;;;18.08;72.31;100504.34;5031800;28;20612;-74
2022/09/23 08:08:38;;;;;;;2.95;2.75;;;;;;;18.65;70.06;100494.16;5031691;28;20235;-74
2022/09/23 08:11:08;;;;;;;3.78;2.60;;;;;;;19.10;67.56;100490.97;5031291;28;20215;-74
2022/09/23 08:13:35;;;;;;;3.35;2.38;;;;;;;19.02;67.31;100490.19;5031431;28;20297;-73
2022/09/23 08:16:03;;;;;;;3.25;2.10;;;;;;;18.84;67.26;100493.03;5031032;28;20564;-73
2022/09/23 08:18:30;;;;;;;2.10;2.00;;;;;;;18.32;66.93;100497.97;5029334;28;20200;-74
2022/09/23 08:20:57;;;;;;;3.90;2.65;;;;;;;18.42;66.46;100498.75;5031463;28;20204;-74
2022/09/23 08:23:23;;;;;;;3.22;2.15;;;;;;;17.96;68.47;100499.19;5031308;28;20252;-74
2022/09/23 08:25:59;;;;;;;2.85;2.65;;;;;;;17.69;70.32;100458.28;5031466;28;20200;-74
2022/09/23 08:28:26;;;;;;;2.58;2.38;;;;;;;17.96;71.55;100499.19;5031329;28;20210;-74
2022/09/23 08:30:54;;;;;;;3.13;2.80;;;;;;;17.70;75.93;100490.63;5031486;28;20200;-72
2022/09/23 08:33:21;;;;;;;3.00;2.78;;;;;;;17.51;82.06;100489.00;5031158;28;20224;-73
2022/09/23 08:35:48;;;;;;;3.10;2.40;;;;;;;17.23;86.23;100481.28;5031125;28;20930;-73
2022/09/23 08:38:14;;;;;;;3.00;2.60;;;;;;;17.02;87.55;100476.16;5031054;28;20657;-73
2022/09/23 08:40:46;;;;;;;3.05;2.47;;;;;;;16.94;89.17;100470.13;5030780;28;20569;-73
2022/09/23 08:43:23;;;;;;;2.58;2.45;;;;;;;16.75;92.08;100490.25;5031063;28;20204;-72
2022/09/23 08:45:57;;;;;;;3.33;3.03;;;;;;;16.31;96.25;100461.56;5030954;28;20625;-70
2022/09/23 08:48:29;;;;;;;6.47;2.80;;;;;;;15.80;100.00;100412.78;5031096;28;20746;-70
2022/09/23 08:51:01;;;;;;;2.90;2.70;;;;;;;15.94;100.00;100444.19;5031428;28;20219;-71
2022/09/23 08:53:32;;;;;;;3.63;3.15;;;;;;;15.59;100.00;100438.09;5031164;28;20228;-70
2022/09/23 08:56:05;;;;;;;3.53;3.22;;;;;;;15.35;100.00;100463.28;5031074;28;20197;-70
2022/09/23 08:58:47;;;;;;;7.10;3.20;;;;;;;15.17;100.00;100463.25;5030746;28;20196;-70
2022/09/23 09:01:22;;;;;;;4.05;3.15;;;;;;;14.52;100.00;100444.72;5030829;28;20238;-70
2022/09/23 09:03:53;;;;;;;3.22;3.03;;;;;;;14.45;100.00;100462.97;5030744;28;20207;-70
2022/09/23 09:06:26;;;;;;;5.32;4.03;;;;;;;14.10;100.00;100436.63;5030756;28;20246;-70
2022/09/23 09:08:57;;;;;;;6.32;4.00;;;;;;;14.14;100.00;100464.47;5030183;28;20232;-70
2022/09/23 09:11:30;;;;;;;4.70;4.07;;;;;;;14.21;100.00;100461.91;5030389;28;20200;-70
2022/09/23 09:14:06;;;;;;;5.82;4.53;;;;;;;14.35;100.00;100460.31;5030706;28;20235;-70
2022/09/23 09:16:47;;;;;;;5.63;4.28;;;;;;;14.37;100.00;100455.97;5030708;28;20711;-70
2022/09/23 09:19:19;;;;;;;4.90;4.35;;;;;;;14.31;100.00;100466.31;5030718;28;20274;-70
2022/09/23 09:21:50;;;;;;;4.22;3.83;;;;;;;14.17;100.00;100443.63;5028437;28;20615;-70
2022/09/23 09:24:19;;;;;;;5.05;4.65;;;;;;;14.14;100.00;100473.19;5035504;28;20682;-70
2022/09/23 09:26:46;;;;;;;7.88;4.70;;;;;;;14.08;100.00;100473.16;5030862;28;20283;-70
2022/09/23 09:29:18;;;;;;;4.13;3.83;;;;;;;14.00;100.00;100477.41;5030542;28;20262;-69
2022/09/23 09:31:46;;;;;;;8.18;4.50;;;;;;;13.79;100.00;100464.22;5030666;28;20641;-70
2022/09/23 09:34:23;;;;;;;5.60;4.97;;;;;;;14.00;100.00;100472.22;5030318;28;20235;-70
2022/09/23 09:37:04;;;;;;;6.72;4.65;;;;;;;13.87;100.00;100433.88;5030714;28;20196;-70
2022/09/23 09:39:31;;;;;;;21.67;19.20;;;;;;;14.28;100.00;100476.75;5030527;28;20204;-71
2022/09/23 09:41:58;;;;;;;6.82;6.22;;;;;;;14.46;100.00;100478.63;5030604;28;20208;-70
2022/09/23 09:44:34;;;;;;;6.20;5.70;;;;;;;14.56;100.00;100466.50;5030530;28;20208;-71
2022/09/23 09:47:29;;;;;;;6.97;5.65;;;;;;;14.91;100.00;100492.78;5030578;28;20738;-71
2022/09/23 09:50:03;;;;;;;4.65;4.20;;;;;;;14.45;100.00;100414.25;5008166;28;20348;-71
2022/09/23 09:52:30;;;;;;;8.57;6.25;;;;;;;15.02;100.00;100494.53;5011123;28;20592;-70
2022/09/23 09:55:17;;;;;;;5.82;5.13;;;;;;;15.08;100.00;100494.56;5011893;28;20318;-70
2022/09/23 09:57:49;;;;;;;4.47;3.90;;;;;;;15.29;100.00;100494.63;5011992;28;20212;-71
2022/09/23 10:00:37;;;;;;;4.95;4.45;;;;;;;15.44;100.00;100504.25;5011944;28;20201;-70
2022/09/23 10:03:21;;;;;;;5.35;4.15;;;;;;;15.58;100.00;100502.56;5011893;28;20204;-70
2022/09/23 10:05:51;;;;;;;3.65;3.35;;;;;;;15.63;100.00;100471.19;4983520;28;20200;-70
2022/09/23 10:08:27;;;;;;;4.45;3.47;;;;;;;15.95;100.00;100510.41;5011662;28;20236;-71
2022/09/23 10:11:01;;;;;;;4.05;2.83;;;;;;;16.01;100.00;100508.69;5011882;28;20204;-71
2022/09/23 10:13:30;;;;;;;4.15;3.20;;;;;;;15.87;100.00;100486.91;5017817;28;20618;-70
2022/09/23 10:15:59;;;;;;;4.68;3.05;;;;;;;16.10;100.00;100486.88;5014913;28;20207;-70
2022/09/23 10:18:30;;;;;;;4.07;3.40;;;;;;;16.22;100.00;100490.38;5031521;28;20193;-70
2022/09/23 10:21:02;;;;;;;3.10;2.78;;;;;;;16.58;100.00;100496.44;5025029;28;20201;-71
2022/09/23 10:23:32;;;;;;;3.33;3.03;;;;;;;16.37;100.00;100464.16;4971971;28;20618;-70
2022/09/23 10:26:00;;;;;;;3.53;2.92;;;;;;;16.35;100.00;100471.16;5037597;28;20210;-73
2022/09/23 10:28:32;;;;;;;2.88;2.67;;;;;;;16.92;100.00;100465.75;5053301;28;20222;-71
2022/09/23 10:31:09;;;;;;;2.83;2.63;;;;;;;17.09;100.00;100490.09;5053180;28;20269;-72
2022/09/23 10:33:42;;;;;;;8.20;3.15;;;;;;;16.97;100.00;100485.81;5041178;28;20307;-68
2022/09/23 10:36:10;;;;;;;3.42;2.63;;;;;;;17.12;100.00;100479.63;5051967;28;20207;-69
2022/09/23 10:38:37;;;;;;;5.47;3.60;;;;;;;16.95;100.00;100461.34;5052719;28;20207;-67
2022/09/23 10:47:04;;;;;;;6.32;2.75;;;;;;;17.34;95.48;100461.13;5044213;28;20627;-68
2022/09/23 10:49:52;;;;;;;3.38;2.78;;;;;;;17.09;92.99;100462.16;5049624;28;20579;-68
2022/09/23 10:52:44;;;;;;;2.10;2.00;;;;;;;17.22;90.85;100460.34;5052792;28;20253;-68
2022/09/23 10:55:33;;;;;;;10.30;3.38;;;;;;;17.28;91.10;100450.69;5052418;28;20621;-68
2022/09/23 10:58:20;;;;;;;4.05;2.58;;;;;;;17.46;89.73;100448.81;5052433;28;20212;-69
2022/09/23 11:01:01;;;;;;;2.45;2.25;;;;;;;17.25;87.21;100445.47;5052943;28;20326;-68
2022/09/23 11:04:01;;;;;;;2.65;2.10;;;;;;;17.32;86.62;100441.94;5052303;28;20208;-69
2022/09/23 11:06:41;;;;;;;2.15;1.90;;;;;;;17.05;86.40;100436.00;5052718;28;20652;-69
2022/09/23 11:09:24;;;;;;;2.08;1.95;;;;;;;17.17;87.32;100431.53;5052276;28;20262;-71
2022/09/23 11:12:07;;;;;;;3.97;2.10;;;;;;;17.41;83.75;100429.66;5052532;28;20204;-68
2022/09/23 11:14:51;;;;;;;6.07;2.50;;;;;;;17.61;84.74;100425.16;5052597;28;20239;-69
2022/09/23 11:17:34;;;;;;;2.30;2.10;;;;;;;17.69;81.67;100423.34;5052301;28;20214;-69
2022/09/23 11:20:26;;;;;;;3.17;2.58;;;;;;;17.62;81.20;100419.88;5050916;28;20214;-68
2022/09/23 11:23:14;;;;;;;2.47;2.05;;;;;;;17.75;80.74;100420.66;5042544;28;20206;-71
2022/09/23 11:25:50;;;;;;;3.22;2.60;;;;;;;18.07;80.96;100415.09;5017055;28;20203;-69
2022/09/23 11:28:47;;;;;;;2.42;1.95;;;;;;;18.39;79.09;100420.00;5052248;28;20206;-69
2022/09/23 11:31:28;;;;;;;2.50;2.30;;;;;;;18.28;73.96;100421.00;5041371;28;20663;-68
2022/09/23 11:34:11;;;;;;;4.88;2.25;;;;;;;18.06;74.22;100411.63;5052065;28;20258;-67
2022/09/23 11:36:44;;;;;;;3.35;1.98;;;;;;;18.17;75.14;100407.13;5052228;28;20207;-68
2022/09/23 11:39:16;;;;;;;6.72;2.78;;;;;;;18.27;76.17;100403.50;5049822;28;20196;-68
2022/09/23 11:41:44;;;;;;;2.03;1.92;;;;;;;18.20;75.29;100404.47;5049887;28;20219;-68
2022/09/23 11:44:17;;;;;;;4.15;2.30;;;;;;;18.29;76.84;100367.63;5051898;28;20203;-67